< Cyclone 198505 1985 Season Cyclone 198507 >
Cyclone 198506 (GERTIE)
General InformationTrack Information on Google MapsDetailed Wind InformationList of All Images || ResourceGoogle EarthGE AnimationAtom FeedGeoJSON
Detalied Best Track (Time Zone = UTC)
Year Month Day Hour Lat. Long. Pressure (hPa) Wind (kt) Class Image Chart
1985 1 26 00 -16.0 126.0 1006 0 0 Image --
1985 1 26 03 -16.1 125.9 1004 0 0 Image --
1985 1 26 06 -16.3 125.9 1003 0 0 Image --
1985 1 26 09 -16.4 125.8 1002 0 0 Image --
1985 1 26 12 -16.5 125.7 1003 0 0 Image --
1985 1 26 16 -16.5 125.5 1004 0 0 Image --
1985 1 26 18 -16.6 125.4 1004 0 0 Image --
1985 1 26 21 -16.6 125.2 1004 0 0 Image --
1985 1 27 00 -16.7 125.0 1004 0 0 Image --
1985 1 27 03 -16.8 124.8 1004 0 0 Image --
1985 1 27 06 -16.8 124.6 1004 0 0 Image --
1985 1 27 09 -16.9 124.4 1004 0 0 Image --
1985 1 27 12 -16.9 124.2 1005 0 0 Image --
1985 1 27 16 -17.0 123.9 1006 0 0 Image --
1985 1 27 18 -17.0 123.8 1006 0 0 Image --
1985 1 27 21 -17.1 123.5 1006 0 0 Image --
1985 1 28 00 -17.4 123.2 1006 0 0 Image --
1985 1 28 03 -17.6 123.0 1005 0 0 Image --
1985 1 28 06 -17.7 122.6 1004 0 0 Image --
1985 1 28 09 -17.8 122.2 1004 0 0 Image --
1985 1 28 12 -17.9 121.9 1003 0 0 Image --
1985 1 28 16 -18.1 121.3 1002 0 0 Image --
1985 1 28 18 -18.2 121.1 1000 0 0 Image --
1985 1 28 21 -18.2 120.8 999 0 0 Image --
1985 1 29 00 -18.3 120.4 998 0 0 Image --
1985 1 29 03 -18.3 120.0 998 0 0 Image --
1985 1 29 06 -18.3 119.7 997 35 3 Image --
1985 1 29 09 -18.3 119.4 996 35 3 Image --
1985 1 29 12 -18.3 119.1 994 39 3 Image --
1985 1 29 16 -18.2 118.7 990 47 3 Image --
1985 1 29 18 -18.2 118.5 988 49 4 Image --
1985 1 29 21 -18.1 118.2 986 53 4 Image --
1985 1 30 00 -18.0 117.9 985 54 4 Image --
1985 1 30 03 -18.1 117.7 983 56 4 Image --
1985 1 30 06 -18.2 117.4 982 58 4 Image --
1985 1 30 09 -18.4 117.3 980 60 4 Image --
1985 1 30 12 -18.7 117.3 978 64 5 Image --
1985 1 30 16 -19.1 117.3 975 66 5 Image --
1985 1 30 18 -19.4 117.2 974 68 5 Image --
1985 1 30 21 -19.9 117.1 973 70 5 Image --
1985 1 31 00 -20.4 117.0 974 68 5 Image --
1985 1 31 03 -20.9 117.0 975 66 5 Image --
1985 1 31 06 -21.4 116.9 976 68 5 Image --
1985 1 31 09 -21.9 117.0 980 60 4 Image --
1985 1 31 12 -22.4 117.2 984 56 4 Image --
1985 1 31 16 -23.2 117.5 988 51.5 0 Image --
1985 1 31 18 -23.7 117.7 990 47 3 Image --
1985 1 31 21 -24.4 117.8 993 39 3 Image --
1985 2 1 00 -25.1 117.8 995 37 3 Image --
1985 2 1 03 -25.8 118.0 997 35 3 Image --
1985 2 1 06 -26.4 118.4 997 35 3 Image --
1985 2 1 09 -26.7 119.0 998 0 0 Image --
1985 2 1 12 -26.8 119.4 999 0 0 Image --
1985 2 1 16 -26.8 120.0 999 0 0 Image --
1985 2 1 18 -26.9 120.0 1000 0 0 Image --
1985 2 1 21 -26.9 120.7 1001 0 0 Image --
1985 2 2 00 -26.9 121.2 1002 0 0 Image --
1985 2 2 03 -26.9 121.7 1002 0 0 Image --
1985 2 2 06 -26.9 122.1 1002 0 0 Image --
1985 2 2 09 -26.9 122.5 1002 0 0 Image --
1985 2 2 12 -26.9 122.8 1003 0 0 Image --
1985 2 2 16 -26.9 123.1 1003 0 0 Image --
1985 2 2 18 -26.9 123.2 1004 0 0 Image --
1985 2 2 21 -26.8 123.5 1004 0 0 Image --
1985 2 3 00 -26.8 123.9 1005 0 0 Image --
< Cyclone 198505 1985 Season Cyclone 198507 >

Help